Bedford, Massachusetts
Current Conditions -  °F | °C
As of 11:56 PM on Sunday 19 Oct 2014 (Local Time) from KBED Reporting Station
Clear Clear  
Wind Chill:   Ceiling: Unl
Heat Index:   Visibility: 10mi
Dew Point: -5°   Wind: 9mph
Humidity: 51%   Direction: 300°WNW
Pressure: 29.95"   Gusts: NA
Location:  42.49°N, 71.28°W
Report Text: KBED 200356Z AUTO 30008KT 10SM CLR 04/M05 A2995 RMK AO2 SLP157 T00441050 TSNO
Loading
Personal Weather Stations






























Interactive Weather Map
Tropical Storm Tracking
New forecast layout! Learn more

10-Day Weather Forecast

Advertisements
Track Severe Weather on mobile